Time;durP1;ratioP1;P1;durP2;ratioP2;P2;SDS_P1;SDS_P2;PMS_P1;PMS_P2;Temp;Humidity;BMP_temperature;BMP_pressure;BME280_temperature;BME280_humidity;BME280_pressure;Samples;Min_cycle;Max_cycle;Signal;HPM_P1;HPM_P2
2023/05/03 00:01:35;;;;;;;5.70;1.40;;;5.60;99.90;;;;;;5066553;28;20040;-79
2023/05/03 00:04:02;;;;;;;4.40;1.10;;;5.60;99.90;;;;;;5067259;28;20044;-79
2023/05/03 00:06:28;;;;;;;3.70;1.55;;;6.30;99.90;;;;;;5067454;28;20040;-79
2023/05/03 00:08:54;;;;;;;2.88;1.25;;;5.70;99.90;;;;;;5066767;28;20047;-79
2023/05/03 00:11:20;;;;;;;3.53;1.23;;;6.60;99.90;;;;;;5067673;28;20036;-79
2023/05/03 00:13:46;;;;;;;4.38;1.27;;;5.80;99.90;;;;;;5066215;28;20051;-79
2023/05/03 00:16:12;;;;;;;3.42;1.38;;;5.80;99.90;;;;;;5084775;28;20044;-79
2023/05/03 00:18:37;;;;;;;4.13;1.73;;;5.90;99.90;;;;;;5066135;28;20040;-79
2023/05/03 00:21:04;;;;;;;2.25;1.30;;;5.90;99.90;;;;;;5066946;28;20442;-79
2023/05/03 00:23:30;;;;;;;4.65;1.42;;;5.90;99.90;;;;;;5067445;28;20489;-79
2023/05/03 00:25:57;;;;;;;4.18;1.60;;;7.50;99.90;;;;;;5066404;28;20071;-79
2023/05/03 00:28:24;;;;;;;3.25;1.23;;;7.00;99.90;;;;;;5084765;28;20127;-79
2023/05/03 00:30:50;;;;;;;6.75;1.30;;;6.10;99.90;;;;;;5082736;28;20091;-79
2023/05/03 00:33:16;;;;;;;8.65;1.30;;;6.30;99.90;;;;;;5084512;28;20044;-79
2023/05/03 00:35:42;;;;;;;4.68;1.30;;;6.30;99.90;;;;;;5065997;28;20051;-79
2023/05/03 00:38:08;;;;;;;2.97;1.27;;;7.30;99.90;;;;;;5067530;28;20040;-79
2023/05/03 00:40:34;;;;;;;3.42;1.25;;;6.80;99.90;;;;;;5051851;28;20178;-79
2023/05/03 00:43:00;;;;;;;6.70;1.20;;;7.50;99.90;;;;;;5084062;28;20418;-78
2023/05/03 00:45:26;;;;;;;5.93;1.33;;;6.40;99.90;;;;;;5051845;28;20131;-79
2023/05/03 00:47:52;;;;;;;5.88;1.27;;;6.50;99.90;;;;;;5066401;28;20055;-79
2023/05/03 00:50:18;;;;;;;4.72;1.13;;;6.80;99.90;;;;;;5084960;28;20130;-79
2023/05/03 00:52:44;;;;;;;6.38;1.33;;;6.60;99.90;;;;;;5067195;28;20040;-80
2023/05/03 00:55:10;;;;;;;3.42;1.65;;;6.60;99.90;;;;;;5085212;28;20040;-79
2023/05/03 00:57:36;;;;;;;6.80;1.10;;;7.40;99.90;;;;;;5083831;28;20406;-79
2023/05/03 01:00:02;;;;;;;4.35;1.25;;;6.60;99.90;;;;;;5083509;28;20044;-79
2023/05/03 01:02:28;;;;;;;2.72;0.93;;;6.70;99.90;;;;;;5084826;28;20443;-79
2023/05/03 01:04:55;;;;;;;8.70;1.48;;;7.50;99.90;;;;;;5084142;28;20048;-80
2023/05/03 01:07:27;;;;;;;2.20;1.00;;;6.70;99.90;;;;;;5088758;28;20050;-79
2023/05/03 01:10:11;;;;;;;2.92;0.90;;;6.70;99.90;;;;;;5069955;28;20101;-79
2023/05/03 01:12:36;;;;;;;2.97;1.15;;;6.80;99.90;;;;;;5087647;28;20091;-80
2023/05/03 01:15:11;;;;;;;4.07;1.23;;;7.30;99.90;;;;;;5088054;28;20083;-79
2023/05/03 01:18:01;;;;;;;4.03;1.13;;;6.80;99.90;;;;;;5086207;28;20048;-79
2023/05/03 01:20:29;;;;;;;2.95;0.77;;;8.10;99.90;;;;;;5087303;28;20048;-79
2023/05/03 01:23:04;;;;;;;2.08;1.10;;;6.80;99.90;;;;;;5069859;28;20048;-79
2023/05/03 01:25:31;;;;;;;5.38;1.00;;;7.80;99.90;;;;;;5087546;28;20456;-79
2023/05/03 01:27:57;;;;;;;1.60;0.77;;;6.80;99.90;;;;;;5071018;28;20040;-79
2023/05/03 01:30:26;;;;;;;5.22;1.50;;;6.80;99.90;;;;;;5069540;28;20541;-79
2023/05/03 01:33:10;;;;;;;2.83;0.90;;;7.20;99.90;;;;;;5087672;28;20086;-79
2023/05/03 01:35:56;;;;;;;2.88;1.17;;;6.80;99.90;;;;;;5086228;28;20047;-79
2023/05/03 01:38:22;;;;;;;4.22;1.17;;;6.80;99.90;;;;;;5070568;28;20593;-79
2023/05/03 01:40:54;;;;;;;4.32;0.90;;;6.80;99.90;;;;;;5086990;28;20040;-79
2023/05/03 01:43:22;;;;;;;3.20;1.02;;;6.70;99.90;;;;;;5069648;28;20419;-79
2023/05/03 01:45:48;;;;;;;5.55;1.13;;;7.00;99.90;;;;;;5070512;28;20488;-79
2023/05/03 01:48:16;;;;;;;4.10;0.90;;;6.70;99.90;;;;;;5086129;28;20498;-79
2023/05/03 01:50:42;;;;;;;7.85;0.90;;;7.10;99.90;;;;;;5087079;28;20050;-79
2023/05/03 01:53:07;;;;;;;3.47;1.10;;;7.80;99.90;;;;;;5086596;28;20039;-79
2023/05/03 01:55:33;;;;;;;2.80;1.15;;;7.80;99.90;;;;;;5086896;28;20578;-79
2023/05/03 01:57:59;;;;;;;2.25;0.90;;;6.70;99.90;;;;;;5086794;28;20079;-79
2023/05/03 02:00:25;;;;;;;5.70;1.45;;;6.60;99.90;;;;;;5069301;28;20054;-79
2023/05/03 02:02:51;;;;;;;4.65;1.38;;;7.10;99.90;;;;;;5053803;28;20391;-79
2023/05/03 02:05:16;;;;;;;2.08;1.13;;;7.00;99.90;;;;;;5068587;28;20040;-79
2023/05/03 02:07:42;;;;;;;1.70;0.73;;;7.00;99.90;;;;;;5053217;28;20454;-80
2023/05/03 02:10:13;;;;;;;5.57;1.17;;;7.40;99.90;;;;;;5052346;28;20039;-80
2023/05/03 02:12:40;;;;;;;5.05;1.15;;;6.60;99.90;;;;;;5053798;28;20044;-79
2023/05/03 02:15:06;;;;;;;4.60;0.90;;;7.20;99.90;;;;;;5086538;28;20560;-80
2023/05/03 02:17:33;;;;;;;4.50;1.40;;;6.60;99.90;;;;;;5067621;28;20409;-79
2023/05/03 02:19:58;;;;;;;3.33;0.90;;;6.70;99.90;;;;;;5086496;28;20056;-79
2023/05/03 02:22:27;;;;;;;1.20;0.70;;;6.70;99.90;;;;;;5085393;28;20087;-79
2023/05/03 02:24:53;;;;;;;1.77;0.85;;;6.90;99.90;;;;;;5069746;28;20418;-79
2023/05/03 02:27:18;;;;;;;3.63;1.20;;;6.70;99.90;;;;;;5068533;28;20399;-79
2023/05/03 02:29:44;;;;;;;3.13;0.90;;;6.70;99.90;;;;;;5035838;28;20044;-79
2023/05/03 02:32:10;;;;;;;3.38;1.02;;;7.80;99.90;;;;;;5086520;28;20461;-79
2023/05/03 02:34:35;;;;;;;1.63;1.10;;;6.80;99.90;;;;;;5051583;28;20075;-79
2023/05/03 02:37:01;;;;;;;3.47;1.00;;;7.20;99.90;;;;;;5086259;28;20048;-80
2023/05/03 02:39:28;;;;;;;5.93;1.05;;;7.50;99.90;;;;;;5051561;28;20393;-80
2023/05/03 02:41:53;;;;;;;2.47;1.13;;;8.00;99.90;;;;;;5052801;28;20087;-80
2023/05/03 02:44:19;;;;;;;7.10;1.33;;;7.50;99.90;;;;;;5068508;28;20083;-78
2023/05/03 02:46:45;;;;;;;3.22;1.75;;;7.90;99.90;;;;;;5086314;28;20070;-78
2023/05/03 02:49:10;;;;;;;3.08;1.00;;;8.40;99.90;;;;;;5068975;28;20044;-78
2023/05/03 02:51:36;;;;;;;7.72;0.90;;;6.80;99.90;;;;;;5090552;28;20097;-78
2023/05/03 02:54:02;;;;;;;4.88;1.50;;;6.80;99.90;;;;;;5075076;28;20036;-78
2023/05/03 02:56:27;;;;;;;3.95;1.00;;;6.80;99.90;;;;;;5090444;28;20511;-78
2023/05/03 02:58:53;;;;;;;6.70;1.33;;;7.30;99.90;;;;;;5038744;28;20047;-78
2023/05/03 03:01:20;;;;;;;7.72;1.10;;;7.00;99.90;;;;;;5085761;28;20086;-78
2023/05/03 03:03:46;;;;;;;6.93;1.20;;;8.00;99.90;;;;;;5086139;28;20040;-78
2023/05/03 03:06:12;;;;;;;5.72;1.27;;;8.30;99.90;;;;;;5068956;28;20079;-78
2023/05/03 03:08:38;;;;;;;2.58;0.70;;;6.80;99.90;;;;;;5084789;28;20082;-79
2023/05/03 03:11:05;;;;;;;3.88;1.90;;;6.80;99.90;;;;;;5052556;28;20043;-78
2023/05/03 03:13:31;;;;;;;7.13;1.48;;;7.70;99.90;;;;;;5084086;28;20044;-78
2023/05/03 03:15:56;;;;;;;4.57;1.00;;;6.80;99.90;;;;;;5068627;28;20152;-79
2023/05/03 03:18:22;;;;;;;5.93;1.13;;;6.80;99.90;;;;;;5084179;28;20040;-78
2023/05/03 03:20:48;;;;;;;6.50;1.10;;;7.90;99.90;;;;;;5084951;28;20048;-78
2023/05/03 03:23:13;;;;;;;6.75;0.88;;;6.80;99.90;;;;;;5067741;28;20058;-79
2023/05/03 03:25:41;;;;;;;2.10;0.70;;;6.70;99.90;;;;;;5084487;28;20051;-78
2023/05/03 03:28:07;;;;;;;4.13;1.00;;;6.70;99.90;;;;;;5051565;28;20093;-78
2023/05/03 03:30:32;;;;;;;2.42;0.70;;;6.70;99.90;;;;;;5050258;28;20036;-78
2023/05/03 03:32:58;;;;;;;5.22;0.93;;;7.80;99.90;;;;;;5085491;28;20078;-78
2023/05/03 03:35:24;;;;;;;2.70;0.70;;;7.30;99.90;;;;;;5066831;28;20036;-78
2023/05/03 03:37:50;;;;;;;3.75;0.80;;;7.10;99.90;;;;;;5084907;28;20039;-78
2023/05/03 03:40:16;;;;;;;2.42;1.48;;;6.70;99.90;;;;;;5051363;28;20052;-78
2023/05/03 03:42:41;;;;;;;3.53;0.88;;;6.50;99.90;;;;;;5067893;28;20063;-79
2023/05/03 03:45:08;;;;;;;5.50;1.38;;;7.70;99.90;;;;;;5085163;28;20036;-78
2023/05/03 03:47:33;;;;;;;3.42;1.02;;;6.50;99.90;;;;;;5050624;28;20129;-78
2023/05/03 03:50:02;;;;;;;5.00;0.80;;;7.90;99.90;;;;;;5068101;28;20075;-79
2023/05/03 03:52:28;;;;;;;2.20;0.82;;;6.60;99.90;;;;;;5066805;28;20089;-78
2023/05/03 03:54:54;;;;;;;1.77;0.65;;;7.20;99.90;;;;;;5068195;28;20434;-79
2023/05/03 03:57:20;;;;;;;1.02;0.60;;;6.40;99.90;;;;;;5050594;28;20477;-78
2023/05/03 03:59:46;;;;;;;2.85;1.15;;;6.50;99.90;;;;;;5066885;28;20079;-79
2023/05/03 04:02:12;;;;;;;3.25;0.98;;;7.20;99.90;;;;;;5067352;28;20052;-78
2023/05/03 04:04:43;;;;;;;3.85;0.85;;;7.40;99.90;;;;;;5067499;28;20125;-78
2023/05/03 04:07:09;;;;;;;3.20;1.23;;;6.40;99.90;;;;;;5068299;28;20490;-78
2023/05/03 04:09:34;;;;;;;5.53;0.80;;;6.30;99.90;;;;;;5066428;28;20566;-78
2023/05/03 04:12:04;;;;;;;4.32;0.80;;;6.30;99.90;;;;;;5067436;28;20044;-79
2023/05/03 04:14:30;;;;;;;3.22;0.93;;;6.30;99.90;;;;;;5050151;28;20511;-79
2023/05/03 04:16:58;;;;;;;4.22;2.17;;;6.40;99.90;;;;;;5083627;28;20067;-79
2023/05/03 04:19:25;;;;;;;2.55;1.35;;;6.30;99.90;;;;;;5067506;28;20580;-80
2023/05/03 04:21:51;;;;;;;3.97;1.02;;;7.10;99.90;;;;;;5049485;28;20499;-79
2023/05/03 04:24:17;;;;;;;3.85;0.80;;;7.20;99.90;;;;;;5067666;28;20083;-79
2023/05/03 04:26:43;;;;;;;1.63;1.02;;;7.70;99.90;;;;;;5082818;28;20075;-79
2023/05/03 04:29:10;;;;;;;4.78;1.00;;;6.40;99.90;;;;;;5083937;28;20059;-83
2023/05/03 04:31:36;;;;;;;2.05;0.90;;;6.50;99.90;;;;;;5050037;28;20055;-83
2023/05/03 04:34:02;;;;;;;5.38;1.00;;;6.50;99.90;;;;;;5033505;28;20046;-79
2023/05/03 04:36:28;;;;;;;3.92;1.00;;;7.30;99.90;;;;;;5067342;28;20119;-80
2023/05/03 04:38:55;;;;;;;4.55;1.30;;;7.00;99.90;;;;;;5082603;28;20047;-79
2023/05/03 04:41:21;;;;;;;3.53;1.00;;;6.60;99.90;;;;;;5083835;28;20105;-79
2023/05/03 04:43:46;;;;;;;1.52;0.80;;;6.70;99.90;;;;;;5065916;28;20059;-79
2023/05/03 04:46:12;;;;;;;2.17;0.73;;;7.00;99.90;;;;;;5067374;28;20052;-80
2023/05/03 04:48:38;;;;;;;5.50;1.10;;;7.50;99.90;;;;;;5049909;28;20190;-80
2023/05/03 04:51:04;;;;;;;5.63;1.08;;;6.80;99.90;;;;;;5083439;28;20465;-80
2023/05/03 04:53:30;;;;;;;3.17;0.90;;;6.80;99.90;;;;;;5050163;28;20040;-80
2023/05/03 04:55:55;;;;;;;4.35;1.17;;;7.80;99.90;;;;;;5066123;28;20040;-80
2023/05/03 04:58:21;;;;;;;2.97;0.85;;;6.90;99.90;;;;;;5083796;28;20056;-80
2023/05/03 05:00:47;;;;;;;2.65;0.90;;;6.90;99.90;;;;;;5082468;28;20079;-80
2023/05/03 05:03:13;;;;;;;2.30;0.82;;;7.80;99.90;;;;;;5067182;28;20043;-81
2023/05/03 05:05:39;;;;;;;4.35;0.77;;;7.90;99.90;;;;;;5083108;28;20128;-82
2023/05/03 05:08:05;;;;;;;5.40;0.82;;;7.10;99.90;;;;;;5066670;28;20044;-80
2023/05/03 05:10:31;;;;;;;6.03;0.70;;;8.00;99.90;;;;;;5066377;28;20090;-80
2023/05/03 05:12:57;;;;;;;1.75;0.70;;;7.20;99.90;;;;;;5083063;28;20105;-79
2023/05/03 05:15:22;;;;;;;4.40;0.80;;;7.20;99.90;;;;;;5066823;28;20441;-82
2023/05/03 05:17:48;;;;;;;2.53;0.70;;;7.30;99.90;;;;;;5065609;28;20036;-82
2023/05/03 05:20:14;;;;;;;2.45;0.40;;;8.10;99.90;;;;;;5049785;28;20055;-82
2023/05/03 05:22:39;;;;;;;5.32;1.45;;;7.40;99.90;;;;;;5049305;28;20102;-81
2023/05/03 05:25:06;;;;;;;4.60;1.00;;;7.50;99.90;;;;;;5066300;28;20143;-81
2023/05/03 05:27:33;;;;;;;3.97;0.90;;;7.60;99.90;;;;;;5066321;28;20544;-80
2023/05/03 05:29:58;;;;;;;3.05;0.73;;;7.80;99.90;;;;;;5065768;28;20044;-81
2023/05/03 05:32:24;;;;;;;5.65;0.65;;;8.30;99.90;;;;;;5083359;28;20040;-81
2023/05/03 05:34:54;;;;;;;4.13;0.80;;;8.50;99.90;;;;;;5065205;28;20040;-80
2023/05/03 05:37:21;;;;;;;5.63;1.85;;;7.90;99.90;;;;;;5066434;28;20048;-82
2023/05/03 05:39:47;;;;;;;5.85;1.17;;;8.00;99.90;;;;;;5048971;28;20048;-80
2023/05/03 05:42:12;;;;;;;5.53;0.57;;;8.10;99.90;;;;;;5049766;28;20052;-79
2023/05/03 05:44:38;;;;;;;8.02;2.13;;;8.20;99.90;;;;;;5066293;28;20083;-81
2023/05/03 05:47:05;;;;;;;3.42;0.40;;;8.90;99.90;;;;;;5048836;28;20123;-81
2023/05/03 05:49:31;;;;;;;3.63;0.70;;;8.50;99.90;;;;;;5065876;28;20044;-81
2023/05/03 05:51:57;;;;;;;4.47;0.80;;;8.90;99.90;;;;;;5083054;28;20268;-81
2023/05/03 06:20:28;;;;;;;2.65;0.85;;;8.70;99.90;;;;;;5150007;27;20838;-83
2023/05/03 06:22:54;;;;;;;5.15;0.65;;;9.20;99.90;;;;;;5114657;27;20047;-83
2023/05/03 06:25:20;;;;;;;2.45;0.52;;;9.30;99.90;;;;;;5148381;27;20050;-83
2023/05/03 06:27:45;;;;;;;10.13;0.63;;;9.20;99.90;;;;;;5114467;27;20045;-83
2023/05/03 06:30:12;;;;;;;5.93;0.50;;;9.30;99.90;;;;;;5113438;27;20499;-83
2023/05/03 06:32:40;;;;;;;3.70;1.23;;;9.30;99.90;;;;;;5114794;27;20049;-83
2023/05/03 06:35:06;;;;;;;5.07;0.40;;;9.30;99.90;;;;;;5147505;27;20062;-83
2023/05/03 06:37:32;;;;;;;1.83;0.40;;;9.40;99.90;;;;;;5149547;27;20039;-83
2023/05/03 06:39:57;;;;;;;3.63;0.52;;;9.40;99.90;;;;;;5149604;27;20149;-83
2023/05/03 06:42:23;;;;;;;7.55;0.73;;;9.40;99.90;;;;;;5132052;27;20043;-83
2023/05/03 06:44:49;;;;;;;3.03;0.47;;;9.40;99.90;;;;;;5148943;27;20035;-84
2023/05/03 06:47:14;;;;;;;2.28;0.45;;;9.50;99.90;;;;;;5147545;27;20067;-82
2023/05/03 06:49:40;;;;;;;2.60;0.50;;;9.50;99.90;;;;;;5130899;27;20187;-83
2023/05/03 06:52:06;;;;;;;2.10;0.35;;;9.60;99.90;;;;;;5130584;27;20184;-83
2023/05/03 06:54:32;;;;;;;4.30;0.65;;;9.70;99.90;;;;;;5148714;27;20471;-83
2023/05/03 06:56:58;;;;;;;3.53;0.65;;;9.70;99.90;;;;;;5113715;27;20053;-84
2023/05/03 06:59:23;;;;;;;3.92;1.65;;;9.80;99.90;;;;;;5131547;27;20389;-84
2023/05/03 07:01:50;;;;;;;2.97;0.60;;;9.80;99.90;;;;;;5131500;27;20343;-84
2023/05/03 07:04:15;;;;;;;7.43;0.75;;;10.00;99.90;;;;;;5113085;27;20034;-84
2023/05/03 07:06:41;;;;;;;4.38;0.60;;;10.00;99.90;;;;;;5130786;27;20030;-84
2023/05/03 07:09:07;;;;;;;3.33;2.05;;;10.00;99.90;;;;;;5112324;27;20045;-84
2023/05/03 07:11:36;;;;;;;1.48;0.30;;;10.10;99.90;;;;;;5131454;27;20061;-83
2023/05/03 07:14:01;;;;;;;3.80;1.00;;;10.20;99.90;;;;;;5146782;27;20046;-84
2023/05/03 07:16:28;;;;;;;8.52;0.50;;;10.20;99.90;;;;;;5113622;27;20169;-84
2023/05/03 07:18:54;;;;;;;2.00;0.50;;;10.20;99.90;;;;;;5105241;28;20400;-84
2023/05/03 07:21:20;;;;;;;3.00;0.40;;;10.20;99.90;;;;;;5077440;28;20105;-83
2023/05/03 07:23:46;;;;;;;3.55;0.45;;;10.40;99.90;;;;;;5112095;28;20035;-83
2023/05/03 07:26:11;;;;;;;2.00;0.47;;;11.00;99.90;;;;;;5110091;28;20127;-83
2023/05/03 07:28:37;;;;;;;1.30;0.38;;;10.50;99.90;;;;;;5111834;28;20108;-84
2023/05/03 07:31:03;;;;;;;8.32;1.05;;;10.40;99.90;;;;;;5093136;28;20043;-83
2023/05/03 07:33:30;;;;;;;8.80;0.90;;;10.50;99.90;;;;;;5095127;28;20051;-83
2023/05/03 07:35:56;;;;;;;3.47;0.47;;;10.50;99.90;;;;;;5094329;28;20047;-83
2023/05/03 07:38:22;;;;;;;4.82;0.30;;;10.60;99.90;;;;;;5110823;28;20066;-83
2023/05/03 07:40:47;;;;;;;3.67;0.65;;;10.70;99.90;;;;;;5094765;28;20043;-83
2023/05/03 07:43:15;;;;;;;2.85;0.30;;;10.70;99.90;;;;;;5076162;28;20043;-85
2023/05/03 07:45:41;;;;;;;1.67;0.55;;;10.70;99.90;;;;;;5095960;28;20082;-84
2023/05/03 07:48:07;;;;;;;3.83;0.47;;;10.70;99.90;;;;;;5126896;27;20043;-83
2023/05/03 07:50:32;;;;;;;2.92;0.50;;;10.80;99.90;;;;;;5094534;28;20039;-83
2023/05/03 07:52:58;;;;;;;2.67;0.47;;;11.20;99.90;;;;;;5111191;28;20047;-84
2023/05/03 07:55:28;;;;;;;2.58;0.50;;;10.80;99.90;;;;;;5111373;28;20170;-82
2023/05/03 07:57:58;;;;;;;4.20;0.52;;;10.80;99.90;;;;;;5078497;28;20396;-83
2023/05/03 08:00:24;;;;;;;3.05;0.40;;;10.90;99.90;;;;;;5093794;28;20039;-82
2023/05/03 08:02:50;;;;;;;4.97;1.27;;;10.90;99.90;;;;;;5111411;28;20050;-85
2023/05/03 08:05:16;;;;;;;3.47;0.52;;;10.90;99.90;;;;;;5076363;28;20434;-83
2023/05/03 08:07:43;;;;;;;3.78;0.40;;;10.90;99.90;;;;;;5111500;28;20035;-83
2023/05/03 08:10:09;;;;;;;8.77;0.60;;;10.90;99.90;;;;;;5093263;28;20192;-83
2023/05/03 08:12:35;;;;;;;7.40;0.98;;;11.00;99.90;;;;;;5093688;28;20468;-83
2023/05/03 08:15:03;;;;;;;2.55;0.68;;;11.00;99.90;;;;;;5077919;28;20047;-83
2023/05/03 08:17:29;;;;;;;1.83;0.52;;;11.10;99.90;;;;;;5076172;28;20039;-84
2023/05/03 08:19:56;;;;;;;3.75;0.95;;;11.10;99.90;;;;;;5110329;28;20120;-83
2023/05/03 08:22:24;;;;;;;8.73;1.35;;;11.10;99.90;;;;;;5091261;28;20138;-84
2023/05/03 08:24:51;;;;;;;3.95;0.60;;;11.00;99.90;;;;;;5093522;28;20044;-84
2023/05/03 08:27:17;;;;;;;6.78;0.60;;;11.00;99.90;;;;;;5108888;28;20255;-84
2023/05/03 08:29:42;;;;;;;4.32;0.60;;;11.10;99.90;;;;;;5108483;28;20040;-82
2023/05/03 08:32:08;;;;;;;5.90;1.38;;;11.10;99.90;;;;;;5108811;28;20054;-84
2023/05/03 08:34:35;;;;;;;3.72;0.70;;;11.20;99.90;;;;;;5091058;28;20047;-84
2023/05/03 08:37:02;;;;;;;7.32;0.82;;;11.20;99.90;;;;;;5092604;28;20050;-83
2023/05/03 08:39:30;;;;;;;7.30;0.50;;;11.30;99.90;;;;;;5107351;28;20050;-83
2023/05/03 08:41:56;;;;;;;4.57;0.65;;;11.20;99.90;;;;;;5092589;28;20407;-83
2023/05/03 08:44:23;;;;;;;2.55;0.47;;;11.30;99.90;;;;;;5107990;28;20047;-84
2023/05/03 08:46:49;;;;;;;3.58;0.52;;;11.30;99.90;;;;;;5091608;28;20400;-84
2023/05/03 08:49:16;;;;;;;3.50;0.60;;;11.20;99.90;;;;;;5109001;28;20043;-84
2023/05/03 08:51:45;;;;;;;8.75;0.65;;;11.20;99.90;;;;;;5107292;28;20050;-83
2023/05/03 08:54:13;;;;;;;2.65;0.57;;;11.20;99.90;;;;;;5092096;28;20042;-84
2023/05/03 08:56:42;;;;;;;3.72;0.70;;;11.20;99.90;;;;;;5089916;28;20138;-84
2023/05/03 08:59:12;;;;;;;7.35;0.50;;;11.20;99.90;;;;;;5108837;28;20054;-83
2023/05/03 09:01:39;;;;;;;4.88;1.58;;;11.20;99.90;;;;;;5091403;28;20092;-83
2023/05/03 09:04:06;;;;;;;7.15;0.70;;;11.20;99.90;;;;;;5108267;28;20051;-84
2023/05/03 09:06:33;;;;;;;3.15;0.82;;;11.20;99.90;;;;;;5110612;28;20415;-83
2023/05/03 09:09:00;;;;;;;3.15;0.60;;;11.30;99.90;;;;;;5073053;28;20044;-84
2023/05/03 09:11:28;;;;;;;4.00;0.60;;;11.30;99.90;;;;;;5108568;28;20074;-83
2023/05/03 09:14:13;;;;;;;2.25;0.50;;;11.30;99.90;;;;;;5106824;28;20081;-83
2023/05/03 09:16:41;;;;;;;7.57;0.73;;;11.30;99.90;;;;;;5091739;28;20134;-83
2023/05/03 09:19:11;;;;;;;4.30;0.57;;;11.30;99.90;;;;;;5107928;28;20056;-83
2023/05/03 09:21:39;;;;;;;2.38;1.15;;;11.30;99.90;;;;;;5090017;28;20060;-83
2023/05/03 09:24:21;;;;;;;4.55;0.93;;;11.30;99.90;;;;;;5091853;28;20066;-83
2023/05/03 09:26:49;;;;;;;7.72;0.70;;;11.40;99.90;;;;;;5090019;28;20039;-82
2023/05/03 09:29:34;;;;;;;3.38;0.55;;;11.30;99.90;;;;;;5091341;28;20042;-83
2023/05/03 09:32:07;;;;;;;3.25;0.60;;;11.40;99.90;;;;;;5107859;28;20130;-83
2023/05/03 09:34:34;;;;;;;3.45;0.73;;;11.40;99.90;;;;;;5107238;28;20062;-82
2023/05/03 09:37:00;;;;;;;8.75;1.45;;;11.40;99.90;;;;;;5091737;28;20036;-83
2023/05/03 09:39:26;;;;;;;7.65;0.82;;;11.40;99.90;;;;;;5106626;28;20113;-83
2023/05/03 09:41:52;;;;;;;3.78;0.52;;;11.50;99.90;;;;;;5091046;28;20476;-82
2023/05/03 09:44:18;;;;;;;4.00;0.57;;;11.60;99.90;;;;;;5090032;28;20098;-82
2023/05/03 09:47:03;;;;;;;1.70;0.68;;;11.70;99.90;;;;;;5090450;28;20448;-82
2023/05/03 09:49:31;;;;;;;5.15;0.70;;;11.70;99.90;;;;;;5090365;28;20100;-82
2023/05/03 09:51:58;;;;;;;2.63;0.50;;;11.60;99.90;;;;;;5089767;28;20466;-82
2023/05/03 09:54:24;;;;;;;4.65;0.43;;;11.60;99.90;;;;;;5108028;28;20047;-82
2023/05/03 09:56:52;;;;;;;3.85;0.70;;;11.70;99.90;;;;;;5089230;28;20039;-83
2023/05/03 09:59:17;;;;;;;3.20;0.60;;;11.70;99.90;;;;;;5090652;28;20043;-82
2023/05/03 10:01:44;;;;;;;8.70;0.63;;;11.60;99.90;;;;;;5089405;28;20047;-83
2023/05/03 10:04:10;;;;;;;4.07;0.50;;;11.70;99.90;;;;;;5073237;28;20130;-83
2023/05/03 10:06:43;;;;;;;2.67;0.38;;;11.70;99.90;;;;;;5073525;28;20400;-83
2023/05/03 10:09:19;;;;;;;7.22;0.82;;;11.80;99.90;;;;;;5105907;28;20508;-83
2023/05/03 10:11:51;;;;;;;2.72;0.80;;;11.90;99.90;;;;;;5125048;28;20484;-82
2023/05/03 10:14:19;;;;;;;1.70;0.30;;;11.90;99.90;;;;;;5089325;28;20181;-83
2023/05/03 10:16:48;;;;;;;4.53;0.50;;;12.00;99.90;;;;;;5090446;28;20081;-83
2023/05/03 10:19:20;;;;;;;2.15;0.45;;;12.10;99.90;;;;;;5089154;28;20399;-83
2023/05/03 10:22:06;;;;;;;8.70;0.67;;;12.20;99.90;;;;;;5089850;28;20118;-83
2023/05/03 10:24:56;;;;;;;3.33;0.68;;;12.30;99.90;;;;;;5107964;28;20035;-83
2023/05/03 10:27:21;;;;;;;1.27;0.40;;;12.50;99.90;;;;;;5105368;28;20055;-84
2023/05/03 10:29:50;;;;;;;3.78;0.90;;;12.60;99.90;;;;;;5089845;28;20043;-83
2023/05/03 10:32:30;;;;;;;3.53;0.63;;;12.70;99.90;;;;;;5089546;28;20172;-84
2023/05/03 10:35:02;;;;;;;2.33;0.77;;;12.70;99.80;;;;;;5106313;28;20047;-86
2023/05/03 10:37:28;;;;;;;5.15;0.82;;;12.70;99.70;;;;;;5091390;28;20062;-83
2023/05/03 10:39:55;;;;;;;3.80;0.60;;;12.80;99.70;;;;;;5072703;28;20071;-83
2023/05/03 10:42:23;;;;;;;1.58;0.65;;;12.80;99.60;;;;;;5091024;28;20077;-83
2023/05/03 10:44:56;;;;;;;4.28;0.73;;;12.80;99.40;;;;;;5089936;28;20043;-86
2023/05/03 10:47:23;;;;;;;3.42;1.00;;;12.80;99.30;;;;;;5074445;28;20044;-84
2023/05/03 10:50:10;;;;;;;3.38;0.60;;;12.80;99.30;;;;;;5090270;28;20420;-83
2023/05/03 10:52:42;;;;;;;1.42;0.43;;;12.90;98.90;;;;;;5089399;28;20047;-84
2023/05/03 10:55:11;;;;;;;2.33;0.50;;;12.90;99.10;;;;;;5091147;28;20111;-82
2023/05/03 10:57:40;;;;;;;4.53;1.10;;;13.00;98.80;;;;;;5093181;28;20036;-83
2023/05/03 11:00:31;;;;;;;4.18;0.70;;;13.10;98.60;;;;;;5093695;28;20563;-84
2023/05/03 11:03:24;;;;;;;4.80;0.88;;;13.10;98.30;;;;;;5111580;28;20500;-84
2023/05/03 11:05:50;;;;;;;1.47;0.50;;;13.20;98.30;;;;;;5092469;28;20564;-82
2023/05/03 11:08:18;;;;;;;4.43;0.50;;;13.20;98.50;;;;;;5094007;28;20130;-82
2023/05/03 11:10:45;;;;;;;7.05;0.57;;;13.30;98.30;;;;;;5093021;28;20039;-82
2023/05/03 11:13:11;;;;;;;1.83;0.40;;;13.50;98.30;;;;;;5110443;28;20082;-82
2023/05/03 11:15:37;;;;;;;5.85;1.33;;;13.80;98.30;;;;;;5110468;28;20047;-83
2023/05/03 11:18:08;;;;;;;7.20;0.80;;;14.20;97.70;;;;;;5109149;28;20424;-83
2023/05/03 11:20:35;;;;;;;3.92;0.70;;;14.40;97.60;;;;;;5093773;28;20500;-82
2023/05/03 11:23:02;;;;;;;2.58;0.50;;;14.50;96.60;;;;;;5109515;28;20040;-81
2023/05/03 11:25:28;;;;;;;5.03;0.60;;;14.50;96.40;;;;;;5093424;28;20050;-82
2023/05/03 11:27:54;;;;;;;2.40;0.50;;;14.30;96.40;;;;;;5075727;28;20031;-82
2023/05/03 11:30:20;;;;;;;2.88;0.50;;;14.20;96.10;;;;;;5092787;28;20046;-83
2023/05/03 11:32:46;;;;;;;7.20;0.90;;;14.20;96.10;;;;;;5110769;28;20408;-82
2023/05/03 11:35:14;;;;;;;5.30;0.73;;;14.20;96.40;;;;;;5092243;28;20039;-82
2023/05/03 11:37:41;;;;;;;4.70;0.93;;;14.10;96.20;;;;;;5076260;28;20517;-82
2023/05/03 11:40:17;;;;;;;10.95;1.20;;;13.90;96.40;;;;;;5108598;28;20058;-81
2023/05/03 11:42:57;;;;;;;3.65;1.23;;;13.90;96.40;;;;;;5092835;28;20534;-83
2023/05/03 11:45:31;;;;;;;3.70;0.82;;;13.80;96.40;;;;;;5110045;28;20098;-82
2023/05/03 11:47:58;;;;;;;2.55;0.90;;;13.70;96.50;;;;;;5109278;28;20562;-82
2023/05/03 11:50:46;;;;;;;6.13;1.45;;;13.50;96.80;;;;;;5093202;28;20036;-83
2023/05/03 11:53:13;;;;;;;5.90;0.93;;;13.50;96.80;;;;;;5074599;28;20063;-82
2023/05/03 11:55:47;;;;;;;3.88;0.63;;;13.50;97.10;;;;;;5109722;28;20298;-83
2023/05/03 11:58:23;;;;;;;4.35;0.73;;;13.50;97.10;;;;;;5092998;28;20403;-85
2023/05/03 12:00:51;;;;;;;6.03;0.80;;;13.50;97.20;;;;;;5091641;28;20059;-84
2023/05/03 12:03:21;;;;;;;7.53;0.85;;;13.60;97.20;;;;;;5093820;27;20035;-81
2023/05/03 12:05:48;;;;;;;6.75;0.88;;;13.60;96.80;;;;;;5092608;28;20086;-85
2023/05/03 12:08:15;;;;;;;2.40;0.82;;;13.60;97.00;;;;;;5109853;28;20047;-84
2023/05/03 12:10:41;;;;;;;6.20;0.90;;;13.60;97.10;;;;;;5109383;28;20040;-83
2023/05/03 12:13:07;;;;;;;2.33;0.63;;;13.60;97.00;;;;;;5092534;28;20047;-83
2023/05/03 12:15:37;;;;;;;3.33;0.90;;;13.50;96.90;;;;;;5092547;28;20036;-84
2023/05/03 12:18:09;;;;;;;2.47;0.50;;;13.50;96.90;;;;;;5108923;28;20442;-83
2023/05/03 12:20:36;;;;;;;2.38;0.93;;;13.60;97.00;;;;;;5092344;28;20474;-83
2023/05/03 12:23:06;;;;;;;2.00;0.73;;;13.60;97.00;;;;;;5074876;28;20126;-83
2023/05/03 12:25:33;;;;;;;7.85;0.95;;;13.70;97.20;;;;;;5092117;28;20587;-83
2023/05/03 12:28:04;;;;;;;7.65;1.90;;;13.90;97.10;;;;;;5091732;28;20063;-84
2023/05/03 12:30:30;;;;;;;3.80;0.77;;;14.10;97.00;;;;;;5092168;28;20492;-84
2023/05/03 12:32:56;;;;;;;4.72;0.82;;;14.30;96.70;;;;;;5075533;28;20498;-84
2023/05/03 12:35:22;;;;;;;4.80;1.05;;;14.30;96.50;;;;;;5108272;28;20480;-83
2023/05/03 12:37:49;;;;;;;4.07;0.52;;;14.30;96.30;;;;;;5109129;28;20109;-84
2023/05/03 12:40:18;;;;;;;7.93;0.65;;;14.30;96.40;;;;;;5091147;28;20672;-83
2023/05/03 12:42:44;;;;;;;2.00;0.60;;;14.10;96.20;;;;;;5091599;28;20036;-84
2023/05/03 12:45:13;;;;;;;2.88;0.60;;;14.00;96.40;;;;;;5091375;28;20043;-83
2023/05/03 12:47:39;;;;;;;2.55;0.60;;;14.00;96.20;;;;;;5091003;28;20050;-83
2023/05/03 12:50:06;;;;;;;4.07;0.60;;;14.00;96.10;;;;;;5108284;28;20043;-84
2023/05/03 12:52:32;;;;;;;3.22;0.75;;;14.00;96.10;;;;;;5091032;28;20035;-83
2023/05/03 12:54:58;;;;;;;5.78;0.88;;;14.00;96.10;;;;;;5092458;28;20089;-83
2023/05/03 12:57:24;;;;;;;1.30;0.47;;;14.10;95.90;;;;;;5108225;28;20075;-84
2023/05/03 12:59:52;;;;;;;4.25;1.25;;;14.20;96.10;;;;;;5074366;28;20040;-83
2023/05/03 13:02:19;;;;;;;2.88;0.60;;;14.30;95.90;;;;;;5091420;28;20534;-83
2023/05/03 13:04:45;;;;;;;2.78;0.70;;;14.50;95.60;;;;;;5107905;28;20052;-83
2023/05/03 13:07:15;;;;;;;4.57;0.68;;;14.60;95.80;;;;;;5090995;28;20043;-83
2023/05/03 13:09:44;;;;;;;10.60;0.85;;;14.70;95.10;;;;;;5090252;28;20050;-83
2023/05/03 13:12:11;;;;;;;4.28;0.50;;;15.00;94.90;;;;;;5091164;28;20039;-83
2023/05/03 13:14:37;;;;;;;2.97;0.70;;;15.20;94.80;;;;;;5090370;28;20274;-84
2023/05/03 13:17:03;;;;;;;1.17;0.68;;;15.20;94.50;;;;;;5107960;28;20165;-83
2023/05/03 13:19:29;;;;;;;3.75;0.90;;;15.00;94.60;;;;;;5089671;28;20039;-83
2023/05/03 13:21:55;;;;;;;2.85;1.00;;;14.70;94.30;;;;;;5090836;28;20047;-83